Time;durP1;ratioP1;P1;durP2;ratioP2;P2;SDS_P1;SDS_P2;PMS_P1;PMS_P2;Temp;Humidity;BMP_temperature;BMP_pressure;BME280_temperature;BME280_humidity;BME280_pressure;Samples;Min_cycle;Max_cycle;Signal;HPM_P1;HPM_P2
2021/12/22 00:00:04;;;;;;;26.70;12.25;;;;;;;;;;6246732;23;20172;-60
2021/12/22 00:02:32;;;;;;;23.75;12.70;;;;;;;;;;6246942;23;20189;-60
2021/12/22 00:04:58;;;;;;;22.73;11.48;;;;;;;;;;6246625;23;20163;-61
2021/12/22 00:07:24;;;;;;;21.15;11.30;;;;;;;;;;6247132;23;20627;-60
2021/12/22 00:09:50;;;;;;;22.90;12.00;;;;;;;;;;6246722;23;20232;-60
2021/12/22 00:12:16;;;;;;;24.55;12.15;;;;;;;;;;6246849;23;20148;-60
2021/12/22 00:14:42;;;;;;;24.65;12.35;;;;;;;;;;6247093;23;20156;-61
2021/12/22 00:17:08;;;;;;;25.23;12.60;;;;;;;;;;6246553;23;20206;-60
2021/12/22 00:19:34;;;;;;;24.58;11.20;;;;;;;;;;6246904;23;20218;-60
2021/12/22 00:22:00;;;;;;;24.92;11.88;;;;;;;;;;6246551;23;20243;-60
2021/12/22 00:24:26;;;;;;;22.42;10.73;;;;;;;;;;6246627;23;20170;-59
2021/12/22 00:26:53;;;;;;;24.33;12.18;;;;;;;;;;6246659;23;20175;-59
2021/12/22 00:29:19;;;;;;;27.38;11.45;;;;;;;;;;6247007;23;20155;-60
2021/12/22 00:31:57;;;;;;;23.98;12.05;;;;;;;;;;6246443;23;20508;-60
2021/12/22 00:34:25;;;;;;;24.70;11.32;;;;;;;;;;6246794;23;20163;-61
2021/12/22 00:36:51;;;;;;;27.00;12.25;;;;;;;;;;6246967;23;20148;-61
2021/12/22 00:39:17;;;;;;;23.10;10.70;;;;;;;;;;6246555;23;20499;-60
2021/12/22 00:41:43;;;;;;;26.48;10.98;;;;;;;;;;6247272;23;20216;-60
2021/12/22 00:44:12;;;;;;;28.23;10.35;;;;;;;;;;6247600;23;20204;-60
2021/12/22 00:46:38;;;;;;;27.38;11.60;;;;;;;;;;6247314;23;20167;-59
2021/12/22 00:49:04;;;;;;;23.20;10.38;;;;;;;;;;6246805;23;20544;-60
2021/12/22 00:51:30;;;;;;;25.05;10.38;;;;;;;;;;6246602;23;20452;-61
2021/12/22 00:53:56;;;;;;;23.85;10.63;;;;;;;;;;6246656;23;20145;-60
2021/12/22 00:56:22;;;;;;;23.20;10.68;;;;;;;;;;6246351;23;20151;-60
2021/12/22 00:58:48;;;;;;;22.80;10.02;;;;;;;;;;6246748;23;20168;-61
2021/12/22 01:01:13;;;;;;;23.63;11.38;;;;;;;;;;6246732;23;20136;-61
2021/12/22 01:03:39;;;;;;;26.55;11.13;;;;;;;;;;6246737;23;20140;-60
2021/12/22 01:06:06;;;;;;;25.55;10.27;;;;;;;;;;6246282;23;20152;-58
2021/12/22 01:08:32;;;;;;;25.50;10.57;;;;;;;;;;6246281;23;20139;-60
2021/12/22 01:10:58;;;;;;;23.60;10.35;;;;;;;;;;6246212;23;20223;-61
2021/12/22 01:13:24;;;;;;;22.88;10.27;;;;;;;;;;6246519;23;20191;-59
2021/12/22 01:15:50;;;;;;;22.20;10.20;;;;;;;;;;6246357;23;20210;-61
2021/12/22 01:18:27;;;;;;;23.88;10.38;;;;;;;;;;6246449;23;20179;-60
2021/12/22 01:21:04;;;;;;;24.33;10.18;;;;;;;;;;6246596;23;20420;-61
2021/12/22 01:23:35;;;;;;;23.95;9.88;;;;;;;;;;6246264;23;20552;-60
2021/12/22 01:26:03;;;;;;;26.58;11.13;;;;;;;;;;6246620;23;20438;-60
2021/12/22 01:28:29;;;;;;;27.00;11.02;;;;;;;;;;6245962;23;20152;-60
2021/12/22 01:31:01;;;;;;;23.85;10.55;;;;;;;;;;6246090;23;20360;-59
2021/12/22 01:33:27;;;;;;;22.50;10.57;;;;;;;;;;6246223;23;20210;-59
2021/12/22 01:35:53;;;;;;;25.10;11.00;;;;;;;;;;6246149;23;20433;-60
2021/12/22 01:38:19;;;;;;;23.50;10.88;;;;;;;;;;6245849;23;20168;-59
2021/12/22 01:40:45;;;;;;;24.77;11.07;;;;;;;;;;6245797;23;20342;-60
2021/12/22 01:43:13;;;;;;;26.63;10.75;;;;;;;;;;6246533;23;20329;-60
2021/12/22 01:45:56;;;;;;;25.73;11.32;;;;;;;;;;6245782;23;20547;-59
2021/12/22 01:51:34;;;;;;;22.30;10.73;;;;;;;;;;6245689;23;20191;-60
2021/12/22 01:54:01;;;;;;;28.52;10.73;;;;;;;;;;6246217;23;20172;-60
2021/12/22 01:56:29;;;;;;;26.55;11.27;;;;;;;;;;6245745;23;20219;-59
2021/12/22 01:58:59;;;;;;;22.20;10.90;;;;;;;;;;6246336;23;20245;-60
2021/12/22 02:01:26;;;;;;;28.13;11.55;;;;;;;;;;6245555;23;20144;-60
2021/12/22 02:03:53;;;;;;;24.83;11.43;;;;;;;;;;6246165;23;20185;-61
2021/12/22 02:06:20;;;;;;;24.67;11.27;;;;;;;;;;6245872;23;20231;-61
2021/12/22 02:08:46;;;;;;;29.20;12.20;;;;;;;;;;6246015;23;20506;-61
2021/12/22 02:11:15;;;;;;;26.50;12.32;;;;;;;;;;6245866;23;20158;-61
2021/12/22 02:13:45;;;;;;;26.70;11.80;;;;;;;;;;6246108;23;20148;-60
2021/12/22 02:16:14;;;;;;;29.30;12.02;;;;;;;;;;6245770;23;20163;-61
2021/12/22 02:18:42;;;;;;;25.92;10.98;;;;;;;;;;6245695;23;20163;-60
2021/12/22 02:21:08;;;;;;;23.98;10.88;;;;;;;;;;6245923;23;20748;-60
2021/12/22 02:23:34;;;;;;;25.70;11.52;;;;;;;;;;6245840;23;20215;-60
2021/12/22 02:26:09;;;;;;;27.63;10.85;;;;;;;;;;6245781;23;20152;-60
2021/12/22 02:28:37;;;;;;;22.60;11.20;;;;;;;;;;6245984;23;20127;-61
2021/12/22 02:31:03;;;;;;;21.38;10.95;;;;;;;;;;6245999;23;20231;-61
2021/12/22 02:33:37;;;;;;;23.40;11.05;;;;;;;;;;6246065;23;20155;-60
2021/12/22 02:38:31;;;;;;;20.10;10.77;;;;;;;;;;6246297;23;20234;-61
2021/12/22 02:40:57;;;;;;;25.98;12.00;;;;;;;;;;6246335;23;20159;-61
2021/12/22 02:43:24;;;;;;;24.10;12.13;;;;;;;;;;6219630;23;20432;-59
2021/12/22 02:45:51;;;;;;;21.10;11.50;;;;;;;;;;6246586;23;20219;-60
2021/12/22 02:48:17;;;;;;;23.05;11.48;;;;;;;;;;6246067;23;20144;-59
2021/12/22 02:50:44;;;;;;;22.92;11.43;;;;;;;;;;6245967;23;20168;-59
2021/12/22 02:53:15;;;;;;;22.50;11.88;;;;;;;;;;6245801;23;20144;-59
2021/12/22 02:55:46;;;;;;;21.65;10.50;;;;;;;;;;6246754;23;20592;-60
2021/12/22 02:58:19;;;;;;;24.80;11.35;;;;;;;;;;6247830;23;20603;-61
2021/12/22 03:01:00;;;;;;;21.85;10.40;;;;;;;;;;6248414;23;20129;-59
2021/12/22 03:03:34;;;;;;;20.75;11.43;;;;;;;;;;6248230;23;20132;-60
2021/12/22 03:06:05;;;;;;;21.63;10.63;;;;;;;;;;6248191;23;20136;-60
2021/12/22 03:08:31;;;;;;;22.50;11.10;;;;;;;;;;6247646;23;20388;-60
2021/12/22 03:10:57;;;;;;;22.88;11.27;;;;;;;;;;6247499;23;20818;-59
2021/12/22 03:13:24;;;;;;;22.02;11.05;;;;;;;;;;6248124;23;20141;-60
2021/12/22 03:15:50;;;;;;;23.63;11.45;;;;;;;;;;6247632;23;20186;-59
2021/12/22 03:18:17;;;;;;;23.38;11.18;;;;;;;;;;6247414;23;20611;-60
2021/12/22 03:20:45;;;;;;;20.65;11.38;;;;;;;;;;6247479;23;20147;-60
2021/12/22 03:23:11;;;;;;;18.98;11.20;;;;;;;;;;6247552;23;20244;-60
2021/12/22 03:25:39;;;;;;;20.55;10.65;;;;;;;;;;6247654;23;20484;-60
2021/12/22 03:28:05;;;;;;;20.63;11.00;;;;;;;;;;6247613;23;20151;-59
2021/12/22 03:30:31;;;;;;;20.25;11.48;;;;;;;;;;6247611;23;20147;-60
2021/12/22 03:32:57;;;;;;;23.65;10.73;;;;;;;;;;6247688;23;20141;-60
2021/12/22 03:35:23;;;;;;;21.27;11.02;;;;;;;;;;6247933;23;20151;-60
2021/12/22 03:37:51;;;;;;;22.02;11.48;;;;;;;;;;6247485;23;20146;-59
2021/12/22 03:40:18;;;;;;;23.30;11.02;;;;;;;;;;6247874;23;20308;-60
2021/12/22 03:42:44;;;;;;;20.40;11.18;;;;;;;;;;6246936;23;20168;-60
2021/12/22 03:45:10;;;;;;;21.90;10.63;;;;;;;;;;6247530;23;20575;-60
2021/12/22 03:47:36;;;;;;;21.55;10.93;;;;;;;;;;6247282;23;20470;-60
2021/12/22 03:50:03;;;;;;;21.85;10.75;;;;;;;;;;6247252;23;20433;-60
2021/12/22 03:52:29;;;;;;;20.27;10.27;;;;;;;;;;6247118;23;20144;-60
2021/12/22 03:54:58;;;;;;;20.63;10.07;;;;;;;;;;6247458;23;20147;-61
2021/12/22 03:57:24;;;;;;;21.55;10.98;;;;;;;;;;6247616;23;20472;-61
2021/12/22 03:59:50;;;;;;;18.67;10.40;;;;;;;;;;6247016;23;20200;-59
2021/12/22 04:02:19;;;;;;;19.48;10.55;;;;;;;;;;6247686;23;20147;-60
2021/12/22 04:04:47;;;;;;;20.77;10.82;;;;;;;;;;6248227;23;20140;-60
2021/12/22 04:07:13;;;;;;;19.15;10.85;;;;;;;;;;6246996;23;20214;-59
2021/12/22 04:09:39;;;;;;;20.92;11.45;;;;;;;;;;6246630;23;20556;-60
2021/12/22 04:12:05;;;;;;;20.33;10.57;;;;;;;;;;6247079;23;20168;-60
2021/12/22 04:14:31;;;;;;;20.13;10.77;;;;;;;;;;6246694;23;20255;-60
2021/12/22 04:16:57;;;;;;;19.65;10.70;;;;;;;;;;6220210;23;20179;-60
2021/12/22 04:19:23;;;;;;;20.67;10.90;;;;;;;;;;6246397;23;20164;-57
2021/12/22 04:21:50;;;;;;;23.20;10.95;;;;;;;;;;6247304;23;20136;-59
2021/12/22 04:24:16;;;;;;;20.98;10.90;;;;;;;;;;6245356;23;20590;-60
2021/12/22 04:26:42;;;;;;;19.95;11.38;;;;;;;;;;6245530;23;20223;-58
2021/12/22 04:29:10;;;;;;;22.08;11.85;;;;;;;;;;6245015;23;20169;-61
2021/12/22 04:31:36;;;;;;;18.50;10.40;;;;;;;;;;6245345;23;20195;-59
2021/12/22 04:34:07;;;;;;;22.55;11.05;;;;;;;;;;6245502;23;20156;-60
2021/12/22 04:36:33;;;;;;;19.73;9.65;;;;;;;;;;6245670;23;20133;-60
2021/12/22 04:38:59;;;;;;;23.50;11.35;;;;;;;;;;6245052;23;20222;-61
2021/12/22 04:41:26;;;;;;;20.17;10.85;;;;;;;;;;6245532;23;20243;-60
2021/12/22 04:43:53;;;;;;;21.05;10.35;;;;;;;;;;6245272;23;20507;-61
2021/12/22 04:46:20;;;;;;;20.60;11.32;;;;;;;;;;6246019;23;20146;-59
2021/12/22 04:48:45;;;;;;;20.33;10.25;;;;;;;;;;6245277;23;20239;-58
2021/12/22 04:51:23;;;;;;;19.92;11.40;;;;;;;;;;6245300;23;20140;-58
2021/12/22 04:53:55;;;;;;;22.58;10.30;;;;;;;;;;6245641;23;20129;-59
2021/12/22 04:56:20;;;;;;;21.58;10.40;;;;;;;;;;6245232;23;20431;-60
2021/12/22 04:58:46;;;;;;;20.58;10.45;;;;;;;;;;6245028;23;20164;-60
2021/12/22 05:01:12;;;;;;;22.10;10.10;;;;;;;;;;6245199;23;20206;-60
2021/12/22 05:03:41;;;;;;;19.58;10.32;;;;;;;;;;6245002;23;20153;-61
2021/12/22 05:06:06;;;;;;;17.13;9.23;;;;;;;;;;6245219;23;20167;-60
2021/12/22 05:08:32;;;;;;;19.48;9.50;;;;;;;;;;6244708;23;20448;-60
2021/12/22 05:10:58;;;;;;;17.58;9.00;;;;;;;;;;6245217;23;20147;-60
2021/12/22 05:13:24;;;;;;;17.52;9.10;;;;;;;;;;6244815;23;20540;-60
2021/12/22 05:15:52;;;;;;;17.80;8.90;;;;;;;;;;6244891;23;20145;-60
2021/12/22 05:18:36;;;;;;;14.38;8.75;;;;;;;;;;6244511;23;20172;-59
2021/12/22 05:21:02;;;;;;;17.40;8.77;;;;;;;;;;6244718;23;20131;-59
2021/12/22 05:23:27;;;;;;;17.55;8.80;;;;;;;;;;6203013;23;981786;-61
2021/12/22 05:25:53;;;;;;;16.77;9.57;;;;;;;;;;6245852;23;20195;-60
2021/12/22 05:28:19;;;;;;;16.17;8.48;;;;;;;;;;6246028;23;20183;-60
2021/12/22 05:30:47;;;;;;;20.15;8.88;;;;;;;;;;6245956;23;20200;-59
2021/12/22 05:33:13;;;;;;;15.50;8.43;;;;;;;;;;6246131;23;20219;-59
2021/12/22 05:35:40;;;;;;;17.98;8.65;;;;;;;;;;6245647;23;20610;-60
2021/12/22 05:38:05;;;;;;;17.08;9.27;;;;;;;;;;6245820;23;20151;-60
2021/12/22 05:40:32;;;;;;;16.10;8.27;;;;;;;;;;6245673;23;20141;-60
2021/12/22 05:42:57;;;;;;;13.25;7.38;;;;;;;;;;6245917;23;20163;-60
2021/12/22 05:45:24;;;;;;;13.57;7.82;;;;;;;;;;6246136;23;20136;-59
2021/12/22 05:47:52;;;;;;;16.60;8.55;;;;;;;;;;6245999;23;20133;-58
2021/12/22 05:50:19;;;;;;;17.02;8.38;;;;;;;;;;6245524;23;20152;-60
2021/12/22 05:52:45;;;;;;;15.65;7.68;;;;;;;;;;6245584;23;20409;-60
2021/12/22 05:55:11;;;;;;;14.57;7.80;;;;;;;;;;6245508;23;20167;-60
2021/12/22 05:57:36;;;;;;;14.95;8.18;;;;;;;;;;6245563;23;20426;-59
2021/12/22 06:00:04;;;;;;;15.00;8.48;;;;;;;;;;6245405;23;20171;-60
2021/12/22 06:02:30;;;;;;;13.65;6.93;;;;;;;;;;6245867;23;20140;-60
2021/12/22 06:04:56;;;;;;;17.15;8.68;;;;;;;;;;6245894;23;20179;-59
2021/12/22 06:07:21;;;;;;;15.60;7.90;;;;;;;;;;6245559;23;20221;-59
2021/12/22 06:09:47;;;;;;;14.35;8.02;;;;;;;;;;6245860;23;20140;-59
2021/12/22 06:12:14;;;;;;;12.77;7.13;;;;;;;;;;6245535;23;20148;-59
2021/12/22 06:14:39;;;;;;;17.92;8.68;;;;;;;;;;6245640;23;20144;-59
2021/12/22 06:17:06;;;;;;;15.27;7.90;;;;;;;;;;6245694;23;20274;-58
2021/12/22 06:19:31;;;;;;;15.68;7.75;;;;;;;;;;6245811;23;20373;-57
2021/12/22 06:21:57;;;;;;;16.52;7.97;;;;;;;;;;6245610;23;20144;-59
2021/12/22 06:24:23;;;;;;;18.85;8.20;;;;;;;;;;6219236;23;20156;-59
2021/12/22 06:26:49;;;;;;;17.40;8.50;;;;;;;;;;6245692;23;20160;-59
2021/12/22 06:29:15;;;;;;;15.18;8.00;;;;;;;;;;6245461;23;20152;-57
2021/12/22 06:31:41;;;;;;;15.98;7.95;;;;;;;;;;6245719;23;20239;-60
2021/12/22 06:34:07;;;;;;;17.80;8.63;;;;;;;;;;6245638;23;20548;-59
2021/12/22 06:36:33;;;;;;;19.27;9.23;;;;;;;;;;6245914;23;20145;-59
2021/12/22 06:38:59;;;;;;;18.17;7.53;;;;;;;;;;6219055;23;20171;-59
2021/12/22 06:41:25;;;;;;;14.18;8.18;;;;;;;;;;6245820;23;20195;-60
2021/12/22 06:43:51;;;;;;;17.55;8.43;;;;;;;;;;6246180;23;20151;-60
2021/12/22 06:46:17;;;;;;;17.30;8.75;;;;;;;;;;6246296;23;20219;-59
2021/12/22 06:48:43;;;;;;;17.42;8.48;;;;;;;;;;6246257;23;20147;-59
2021/12/22 06:51:09;;;;;;;16.98;8.65;;;;;;;;;;6246411;23;20275;-58
2021/12/22 06:53:38;;;;;;;16.75;8.68;;;;;;;;;;6246077;23;20223;-59
2021/12/22 06:56:04;;;;;;;20.15;9.07;;;;;;;;;;6246229;23;20148;-59
2021/12/22 06:58:30;;;;;;;17.98;8.90;;;;;;;;;;6245945;23;20211;-59
2021/12/22 07:00:56;;;;;;;18.58;8.65;;;;;;;;;;6219483;23;20448;-58
2021/12/22 07:03:22;;;;;;;17.40;8.85;;;;;;;;;;6246603;23;20176;-60
2021/12/22 07:05:48;;;;;;;17.20;8.25;;;;;;;;;;6245584;23;20143;-59
2021/12/22 07:08:14;;;;;;;17.70;9.57;;;;;;;;;;6245733;23;20274;-59
2021/12/22 07:10:40;;;;;;;21.10;9.30;;;;;;;;;;6245998;23;20175;-59
2021/12/22 07:13:07;;;;;;;19.15;9.38;;;;;;;;;;6246668;23;20520;-59
2021/12/22 07:15:33;;;;;;;19.02;9.23;;;;;;;;;;6246408;23;20144;-59
2021/12/22 07:18:01;;;;;;;18.65;8.77;;;;;;;;;;6245862;23;20144;-60
2021/12/22 07:20:27;;;;;;;18.35;8.95;;;;;;;;;;6246165;23;20148;-59
2021/12/22 07:22:53;;;;;;;16.77;8.65;;;;;;;;;;6245824;23;20460;-59
2021/12/22 07:25:23;;;;;;;17.23;8.95;;;;;;;;;;6246378;23;20144;-60
2021/12/22 07:27:49;;;;;;;19.77;8.77;;;;;;;;;;6245688;23;20222;-59
2021/12/22 07:30:15;;;;;;;20.63;9.73;;;;;;;;;;6245902;23;20227;-60
2021/12/22 07:32:41;;;;;;;19.67;9.30;;;;;;;;;;6246190;23;20187;-60
2021/12/22 07:35:14;;;;;;;19.63;9.57;;;;;;;;;;6245571;23;20140;-58
2021/12/22 07:37:43;;;;;;;20.02;9.85;;;;;;;;;;6246085;23;20623;-60
2021/12/22 07:40:11;;;;;;;19.52;9.65;;;;;;;;;;6245577;23;20181;-60
2021/12/22 07:42:37;;;;;;;20.27;9.55;;;;;;;;;;6246540;23;20144;-60
2021/12/22 07:45:04;;;;;;;21.65;9.73;;;;;;;;;;6247088;23;20592;-60
2021/12/22 07:47:30;;;;;;;21.13;10.07;;;;;;;;;;6247082;23;20140;-60
2021/12/22 07:49:56;;;;;;;21.17;10.15;;;;;;;;;;6247353;23;20157;-60
2021/12/22 07:52:26;;;;;;;22.33;10.10;;;;;;;;;;6247479;23;20215;-58
2021/12/22 07:54:52;;;;;;;22.35;9.85;;;;;;;;;;6247733;23;20132;-58
2021/12/22 07:57:18;;;;;;;21.83;10.15;;;;;;;;;;6247147;23;20518;-60
2021/12/22 07:59:43;;;;;;;21.60;10.38;;;;;;;;;;6246802;23;20160;-60
2021/12/22 08:02:10;;;;;;;19.35;9.73;;;;;;;;;;6247379;23;20141;-60
2021/12/22 08:04:36;;;;;;;19.08;9.45;;;;;;;;;;6246889;23;20448;-60
2021/12/22 08:07:02;;;;;;;20.25;9.90;;;;;;;;;;6246868;23;20223;-61
2021/12/22 08:09:28;;;;;;;25.80;9.82;;;;;;;;;;6246916;23;20539;-60
2021/12/22 08:11:55;;;;;;;24.23;10.35;;;;;;;;;;6246679;23;20140;-60
2021/12/22 08:14:23;;;;;;;21.08;9.80;;;;;;;;;;6247140;23;20206;-61
2021/12/22 08:16:49;;;;;;;21.80;10.45;;;;;;;;;;6246878;23;20168;-58
2021/12/22 08:19:15;;;;;;;22.08;10.93;;;;;;;;;;6246978;23;20178;-59
2021/12/22 08:21:41;;;;;;;22.95;10.68;;;;;;;;;;6246482;23;20144;-59
2021/12/22 08:24:07;;;;;;;24.73;11.43;;;;;;;;;;6246647;23;20231;-60
2021/12/22 08:26:34;;;;;;;22.85;10.88;;;;;;;;;;6246507;23;20526;-59
2021/12/22 08:29:00;;;;;;;23.52;10.77;;;;;;;;;;6246515;23;20182;-59
2021/12/22 08:31:25;;;;;;;18.45;9.98;;;;;;;;;;6246423;23;20140;-59
2021/12/22 08:33:54;;;;;;;19.38;9.27;;;;;;;;;;6246396;23;20192;-61
2021/12/22 08:39:05;;;;;;;19.27;9.15;;;;;;;;;;6246401;23;20251;-60
2021/12/22 08:41:33;;;;;;;20.38;9.23;;;;;;;;;;6246426;23;20216;-60
2021/12/22 08:44:07;;;;;;;18.33;8.95;;;;;;;;;;6246287;23;20491;-60
2021/12/22 08:46:33;;;;;;;18.52;9.40;;;;;;;;;;6246211;23;20128;-60
2021/12/22 08:49:00;;;;;;;20.25;9.75;;;;;;;;;;6246761;23;20465;-60
2021/12/22 08:51:26;;;;;;;20.90;10.25;;;;;;;;;;6246507;23;20561;-60
2021/12/22 08:53:52;;;;;;;21.73;9.68;;;;;;;;;;6246958;23;20195;-60
2021/12/22 08:56:19;;;;;;;19.73;9.35;;;;;;;;;;6246444;23;20140;-60
2021/12/22 08:58:44;;;;;;;17.20;9.05;;;;;;;;;;6246361;23;20164;-60
2021/12/22 09:01:11;;;;;;;19.08;8.93;;;;;;;;;;6246415;23;20568;-60
2021/12/22 09:03:37;;;;;;;17.35;9.00;;;;;;;;;;6246960;23;20171;-60
2021/12/22 09:06:03;;;;;;;16.92;8.82;;;;;;;;;;6246597;23;20140;-60
2021/12/22 09:08:29;;;;;;;15.50;8.60;;;;;;;;;;6246726;23;20442;-59
2021/12/22 09:10:55;;;;;;;17.15;8.88;;;;;;;;;;6246783;23;20472;-59
2021/12/22 09:13:21;;;;;;;17.08;8.55;;;;;;;;;;6247686;23;20445;-58
2021/12/22 09:15:48;;;;;;;16.83;8.50;;;;;;;;;;6247254;23;20148;-59
2021/12/22 09:18:14;;;;;;;19.50;9.27;;;;;;;;;;6246642;23;20171;-59
2021/12/22 09:20:40;;;;;;;14.82;8.02;;;;;;;;;;6246885;23;20548;-58
2021/12/22 09:23:06;;;;;;;15.27;7.75;;;;;;;;;;6246404;23;20167;-60
2021/12/22 09:25:33;;;;;;;14.00;7.32;;;;;;;;;;6246590;23;20219;-60
2021/12/22 09:28:00;;;;;;;13.45;7.15;;;;;;;;;;6246875;23;20136;-61
2021/12/22 09:30:26;;;;;;;13.85;7.32;;;;;;;;;;6247047;23;20210;-59
2021/12/22 09:32:52;;;;;;;14.77;7.18;;;;;;;;;;6247024;23;20448;-57
2021/12/22 09:35:18;;;;;;;14.85;6.95;;;;;;;;;;6246932;23;20216;-60
2021/12/22 09:37:44;;;;;;;11.50;6.50;;;;;;;;;;6219762;23;20380;-60
2021/12/22 09:40:10;;;;;;;14.10;7.35;;;;;;;;;;6219682;23;20179;-60
2021/12/22 09:42:36;;;;;;;13.27;7.80;;;;;;;;;;6246405;23;20345;-60
2021/12/22 09:45:02;;;;;;;14.25;7.05;;;;;;;;;;6246522;23;20190;-58
2021/12/22 09:47:36;;;;;;;16.20;7.35;;;;;;;;;;6246579;23;20148;-59
2021/12/22 09:50:09;;;;;;;12.30;7.15;;;;;;;;;;6246736;23;20133;-60
2021/12/22 09:52:35;;;;;;;12.07;6.90;;;;;;;;;;6246576;23;20201;-60
2021/12/22 09:55:01;;;;;;;13.00;6.90;;;;;;;;;;6246086;23;20565;-61
2021/12/22 09:57:28;;;;;;;12.55;6.63;;;;;;;;;;6246098;23;20650;-60
2021/12/22 09:59:55;;;;;;;12.48;7.15;;;;;;;;;;6246330;23;20164;-57
2021/12/22 10:02:22;;;;;;;10.50;5.95;;;;;;;;;;6246266;23;20199;-60
2021/12/22 10:04:49;;;;;;;11.30;5.28;;;;;;;;;;6246744;23;20144;-59
2021/12/22 10:07:26;;;;;;;10.10;5.35;;;;;;;;;;6246094;23;20439;-60
2021/12/22 10:09:52;;;;;;;8.80;5.07;;;;;;;;;;6246677;23;20136;-59
2021/12/22 10:12:20;;;;;;;9.05;5.00;;;;;;;;;;6245971;23;20413;-59
2021/12/22 10:14:50;;;;;;;9.55;4.88;;;;;;;;;;6219263;23;20294;-60
2021/12/22 10:17:47;;;;;;;8.80;4.63;;;;;;;;;;6245674;23;20152;-60
2021/12/22 10:20:15;;;;;;;7.80;4.28;;;;;;;;;;6215579;23;20180;-61
2021/12/22 10:22:45;;;;;;;6.95;3.70;;;;;;;;;;6245192;23;20223;-60
2021/12/22 10:25:22;;;;;;;10.15;4.82;;;;;;;;;;6245628;23;20141;-60
2021/12/22 10:28:00;;;;;;;7.45;4.10;;;;;;;;;;6245439;23;20144;-58
2021/12/22 10:30:30;;;;;;;7.15;3.90;;;;;;;;;;6245359;23;20147;-60
2021/12/22 10:33:16;;;;;;;8.38;4.63;;;;;;;;;;6245266;23;20156;-61
2021/12/22 10:35:44;;;;;;;7.88;4.40;;;;;;;;;;6243483;23;20549;-60
2021/12/22 10:38:11;;;;;;;6.72;3.90;;;;;;;;;;6245666;23;20138;-60
2021/12/22 10:40:38;;;;;;;7.20;4.18;;;;;;;;;;6245394;23;20179;-60
2021/12/22 10:43:06;;;;;;;9.48;3.63;;;;;;;;;;6245203;23;20137;-60
2021/12/22 10:45:34;;;;;;;8.75;3.85;;;;;;;;;;6245205;23;20553;-60
2021/12/22 10:50:46;;;;;;;7.30;3.83;;;;;;;;;;6245465;23;20163;-58
2021/12/22 10:53:13;;;;;;;8.80;4.43;;;;;;;;;;6245247;23;20559;-60
2021/12/22 10:55:41;;;;;;;9.13;4.15;;;;;;;;;;6245744;23;20148;-60
2021/12/22 10:58:19;;;;;;;8.80;4.65;;;;;;;;;;6245088;23;20216;-59
2021/12/22 11:00:45;;;;;;;7.70;3.97;;;;;;;;;;6245549;23;20144;-59
2021/12/22 11:03:15;;;;;;;6.43;3.22;;;;;;;;;;6245452;23;20141;-60
2021/12/22 11:05:43;;;;;;;7.90;3.92;;;;;;;;;;6246429;23;20155;-59
2021/12/22 11:08:26;;;;;;;7.97;4.20;;;;;;;;;;6246163;23;20199;-59
2021/12/22 11:10:52;;;;;;;8.15;3.97;;;;;;;;;;6246529;23;20136;-59
2021/12/22 11:13:22;;;;;;;11.05;5.03;;;;;;;;;;6245863;23;20148;-59
2021/12/22 11:15:48;;;;;;;9.00;4.68;;;;;;;;;;6246034;23;20576;-59
2021/12/22 11:18:31;;;;;;;8.40;4.30;;;;;;;;;;6246666;23;20163;-58
2021/12/22 11:21:08;;;;;;;8.70;4.40;;;;;;;;;;6247822;23;20238;-57
2021/12/22 11:23:35;;;;;;;7.82;4.18;;;;;;;;;;6247575;23;20234;-60
2021/12/22 11:26:00;;;;;;;9.05;4.75;;;;;;;;;;6247471;23;20526;-59
2021/12/22 11:28:26;;;;;;;7.70;4.25;;;;;;;;;;6247539;23;20156;-60
2021/12/22 11:30:52;;;;;;;8.93;4.20;;;;;;;;;;6247442;23;20140;-58
2021/12/22 11:33:18;;;;;;;9.88;4.63;;;;;;;;;;6247573;23;20235;-60
2021/12/22 11:35:44;;;;;;;8.15;4.38;;;;;;;;;;6247591;23;20432;-60
2021/12/22 11:38:11;;;;;;;9.85;4.28;;;;;;;;;;6247415;23;20154;-59
2021/12/22 11:40:37;;;;;;;9.88;5.35;;;;;;;;;;6248179;23;20140;-60
2021/12/22 11:43:03;;;;;;;11.60;4.93;;;;;;;;;;6247795;23;20151;-57
2021/12/22 11:45:29;;;;;;;8.77;4.28;;;;;;;;;;6247671;23;20238;-60
2021/12/22 11:47:57;;;;;;;9.63;5.07;;;;;;;;;;6247711;23;20198;-60
2021/12/22 11:50:28;;;;;;;9.30;4.55;;;;;;;;;;6248301;23;20144;-60
2021/12/22 11:52:56;;;;;;;8.55;4.70;;;;;;;;;;6248266;23;20144;-60
2021/12/22 11:55:23;;;;;;;10.57;4.65;;;;;;;;;;6248763;23;20144;-59
2021/12/22 11:58:08;;;;;;;11.35;4.80;;;;;;;;;;6247789;23;20503;-58
2021/12/22 12:00:36;;;;;;;8.40;4.45;;;;;;;;;;6247569;23;20166;-60
2021/12/22 12:23:22;;;;;;;11.35;5.53;;;;;;;;;;5090615;28;20203;-60
2021/12/22 12:25:48;;;;;;;11.05;5.32;;;;;;;;;;5090723;28;20218;-59
2021/12/22 12:28:18;;;;;;;11.02;5.35;;;;;;;;;;5090315;28;20170;-60
2021/12/22 12:30:48;;;;;;;10.75;5.75;;;;;;;;;;5090147;28;20168;-60
2021/12/22 12:33:25;;;;;;;9.95;4.82;;;;;;;;;;5090238;28;20471;-59
2021/12/22 12:35:52;;;;;;;11.80;4.88;;;;;;;;;;5090033;28;20608;-57
2021/12/22 12:38:22;;;;;;;10.75;5.25;;;;;;;;;;5105837;28;20262;-60
2021/12/22 12:41:00;;;;;;;8.95;4.75;;;;;;;;;;5089998;28;20541;-60
2021/12/22 12:43:48;;;;;;;10.88;5.43;;;;;;;;;;5089717;28;20202;-60
2021/12/22 12:46:20;;;;;;;11.23;5.45;;;;;;;;;;5090053;28;20160;-60
2021/12/22 12:49:07;;;;;;;11.43;5.45;;;;;;;;;;5090199;28;20176;-60
2021/12/22 12:51:35;;;;;;;13.77;6.57;;;;;;;;;;5089804;28;20232;-60
2021/12/22 12:54:03;;;;;;;14.13;7.00;;;;;;;;;;5089385;28;20196;-60
2021/12/22 12:56:36;;;;;;;13.00;7.15;;;;;;;;;;5089559;28;20589;-60
2021/12/22 12:59:06;;;;;;;12.68;6.22;;;;;;;;;;5089471;28;20259;-60
2021/12/22 13:01:45;;;;;;;11.43;6.10;;;;;;;;;;5090256;28;20255;-60
2021/12/22 13:04:27;;;;;;;11.88;5.80;;;;;;;;;;5089900;28;20202;-60
2021/12/22 13:07:04;;;;;;;12.10;5.85;;;;;;;;;;5090045;28;20206;-61
2021/12/22 13:09:34;;;;;;;12.45;6.05;;;;;;;;;;5089918;28;20602;-60
2021/12/22 13:17:38;;;;;;;13.32;6.50;;;;;;;;;;5096951;28;20520;-58
2021/12/22 13:20:05;;;;;;;14.88;7.07;;;;;;;;;;5096379;28;20171;-59
2021/12/22 13:22:32;;;;;;;14.30;7.25;;;;;;;;;;5096253;28;20361;-58
2021/12/22 13:25:07;;;;;;;13.85;7.80;;;;;;;;;;5096756;28;20535;-61
2021/12/22 13:27:33;;;;;;;15.43;8.30;;;;;;;;;;5096392;28;20174;-59
2021/12/22 13:30:12;;;;;;;15.43;7.65;;;;;;;;;;5096169;28;20167;-60
2021/12/22 13:32:57;;;;;;;17.75;8.15;;;;;;;;;;5096545;28;20714;-60
2021/12/22 13:35:43;;;;;;;16.77;8.45;;;;;;;;;;5096681;28;20167;-60
2021/12/22 13:38:11;;;;;;;15.15;7.68;;;;;;;;;;5096305;28;20221;-60
2021/12/22 13:40:36;;;;;;;15.82;8.18;;;;;;;;;;5096194;28;20636;-60
2021/12/22 13:43:03;;;;;;;14.48;7.32;;;;;;;;;;5095942;28;20349;-60
2021/12/22 13:45:29;;;;;;;18.38;9.05;;;;;;;;;;5096058;28;20216;-59
2021/12/22 13:47:55;;;;;;;20.15;8.88;;;;;;;;;;5095958;28;20168;-60
2021/12/22 13:50:21;;;;;;;14.30;7.30;;;;;;;;;;5095855;28;20160;-60
2021/12/22 13:52:47;;;;;;;14.30;8.32;;;;;;;;;;5095715;28;20164;-59
2021/12/22 13:55:13;;;;;;;14.45;7.95;;;;;;;;;;5095870;28;20225;-60
2021/12/22 13:57:39;;;;;;;15.90;7.72;;;;;;;;;;5095747;28;20156;-61
2021/12/22 14:00:06;;;;;;;15.35;7.63;;;;;;;;;;5095862;28;20186;-61
2021/12/22 14:02:36;;;;;;;15.73;8.63;;;;;;;;;;5095386;28;20640;-60
2021/12/22 14:05:16;;;;;;;17.45;8.13;;;;;;;;;;5095591;28;20619;-60
2021/12/22 14:07:42;;;;;;;16.42;7.72;;;;;;;;;;5095915;28;20267;-60
2021/12/22 14:10:12;;;;;;;15.68;7.32;;;;;;;;;;5095816;28;20174;-60
2021/12/22 14:12:40;;;;;;;15.75;7.68;;;;;;;;;;5095188;28;20170;-60
2021/12/22 14:15:06;;;;;;;12.98;7.00;;;;;;;;;;5095765;28;20642;-61
2021/12/22 14:17:35;;;;;;;10.52;6.00;;;;;;;;;;5095326;28;20203;-59
2021/12/22 14:20:14;;;;;;;11.15;6.20;;;;;;;;;;5095621;28;20509;-60
2021/12/22 14:22:45;;;;;;;11.98;6.07;;;;;;;;;;5095076;28;20183;-60
2021/12/22 14:25:17;;;;;;;14.32;7.10;;;;;;;;;;5095035;28;20495;-60
2021/12/22 14:27:44;;;;;;;12.45;6.25;;;;;;;;;;5094762;28;20264;-59
2021/12/22 14:30:21;;;;;;;11.77;6.28;;;;;;;;;;5095383;28;20160;-59
2021/12/22 14:33:07;;;;;;;13.07;6.07;;;;;;;;;;5094961;28;20613;-60
2021/12/22 14:35:34;;;;;;;12.10;6.47;;;;;;;;;;5095213;28;20228;-61
2021/12/22 14:38:02;;;;;;;11.48;6.22;;;;;;;;;;5094892;28;20555;-59
2021/12/22 14:40:29;;;;;;;13.25;6.38;;;;;;;;;;5095224;28;20164;-61
2021/12/22 14:42:57;;;;;;;13.35;6.93;;;;;;;;;;5094942;28;20230;-61
2021/12/22 14:45:30;;;;;;;11.77;6.05;;;;;;;;;;5095088;28;20206;-60
2021/12/22 14:48:03;;;;;;;12.52;6.18;;;;;;;;;;5095291;28;20165;-60
2021/12/22 14:50:29;;;;;;;12.35;6.63;;;;;;;;;;5094737;28;20171;-60
2021/12/22 14:53:00;;;;;;;10.82;6.03;;;;;;;;;;5094692;28;20246;-60
2021/12/22 14:55:37;;;;;;;12.23;6.95;;;;;;;;;;5094511;28;20517;-61
2021/12/22 14:58:03;;;;;;;13.05;6.10;;;;;;;;;;5094910;28;20167;-60
2021/12/22 15:00:28;;;;;;;13.43;6.35;;;;;;;;;;5094765;28;20608;-61
2021/12/22 15:02:54;;;;;;;12.82;6.45;;;;;;;;;;5094709;28;20570;-59
2021/12/22 15:05:20;;;;;;;11.90;6.35;;;;;;;;;;5094663;28;20160;-61
2021/12/22 15:07:46;;;;;;;12.85;6.72;;;;;;;;;;5094532;28;20585;-60